sensor_id;sensor_type;location;lat;lon;timestamp;P1;durP1;ratioP1;P2;durP2;ratioP2
1563;SDS011;775;51.958;7.976;2022-08-20T00:01:47;12.80;;;9.87;;
1563;SDS011;775;51.958;7.976;2022-08-20T00:04:14;14.23;;;9.80;;
1563;SDS011;775;51.958;7.976;2022-08-20T00:06:42;12.37;;;9.30;;
1563;SDS011;775;51.958;7.976;2022-08-20T00:09:09;13.93;;;9.87;;
1563;SDS011;775;51.958;7.976;2022-08-20T00:11:36;11.50;;;9.27;;
1563;SDS011;775;51.958;7.976;2022-08-20T00:14:05;13.27;;;9.67;;
1563;SDS011;775;51.958;7.976;2022-08-20T00:16:35;14.07;;;9.40;;
1563;SDS011;775;51.958;7.976;2022-08-20T00:19:03;12.40;;;9.70;;
1563;SDS011;775;51.958;7.976;2022-08-20T00:21:31;12.70;;;9.07;;
1563;SDS011;775;51.958;7.976;2022-08-20T00:23:58;11.23;;;9.30;;
1563;SDS011;775;51.958;7.976;2022-08-20T00:26:25;13.93;;;9.40;;
1563;SDS011;775;51.958;7.976;2022-08-20T00:28:53;11.40;;;8.73;;
1563;SDS011;775;51.958;7.976;2022-08-20T00:31:22;12.60;;;10.37;;
1563;SDS011;775;51.958;7.976;2022-08-20T00:33:50;12.90;;;9.70;;
1563;SDS011;775;51.958;7.976;2022-08-20T00:36:17;13.53;;;11.33;;
1563;SDS011;775;51.958;7.976;2022-08-20T00:38:45;14.10;;;9.87;;
1563;SDS011;775;51.958;7.976;2022-08-20T00:41:14;13.43;;;9.50;;
1563;SDS011;775;51.958;7.976;2022-08-20T00:43:42;12.80;;;9.57;;
1563;SDS011;775;51.958;7.976;2022-08-20T00:46:11;13.57;;;10.23;;
1563;SDS011;775;51.958;7.976;2022-08-20T00:48:44;12.53;;;9.90;;
1563;SDS011;775;51.958;7.976;2022-08-20T00:51:13;16.63;;;9.43;;
1563;SDS011;775;51.958;7.976;2022-08-20T00:53:42;13.00;;;8.80;;
1563;SDS011;775;51.958;7.976;2022-08-20T00:56:10;12.70;;;8.70;;
1563;SDS011;775;51.958;7.976;2022-08-20T00:58:39;12.37;;;9.10;;
1563;SDS011;775;51.958;7.976;2022-08-20T01:01:08;13.13;;;8.60;;
1563;SDS011;775;51.958;7.976;2022-08-20T01:03:36;16.67;;;10.00;;
1563;SDS011;775;51.958;7.976;2022-08-20T01:06:05;12.50;;;9.37;;
1563;SDS011;775;51.958;7.976;2022-08-20T01:08:33;14.40;;;8.97;;
1563;SDS011;775;51.958;7.976;2022-08-20T01:11:00;12.43;;;8.90;;
1563;SDS011;775;51.958;7.976;2022-08-20T01:13:36;11.70;;;8.47;;
1563;SDS011;775;51.958;7.976;2022-08-20T01:16:07;14.27;;;9.60;;
1563;SDS011;775;51.958;7.976;2022-08-20T01:18:36;13.30;;;8.30;;
1563;SDS011;775;51.958;7.976;2022-08-20T01:21:05;12.07;;;9.40;;
1563;SDS011;775;51.958;7.976;2022-08-20T01:23:34;14.00;;;9.57;;
1563;SDS011;775;51.958;7.976;2022-08-20T01:26:07;15.30;;;10.17;;
1563;SDS011;775;51.958;7.976;2022-08-20T01:28:37;13.10;;;9.40;;
1563;SDS011;775;51.958;7.976;2022-08-20T01:31:05;12.97;;;9.40;;
1563;SDS011;775;51.958;7.976;2022-08-20T01:33:32;14.73;;;10.10;;
1563;SDS011;775;51.958;7.976;2022-08-20T01:36:00;15.37;;;10.03;;
1563;SDS011;775;51.958;7.976;2022-08-20T01:38:27;11.93;;;8.50;;
1563;SDS011;775;51.958;7.976;2022-08-20T01:43:43;14.97;;;8.10;;
1563;SDS011;775;51.958;7.976;2022-08-20T01:46:11;13.13;;;8.73;;
1563;SDS011;775;51.958;7.976;2022-08-20T01:48:39;11.70;;;8.77;;
1563;SDS011;775;51.958;7.976;2022-08-20T01:51:08;12.77;;;8.20;;
1563;SDS011;775;51.958;7.976;2022-08-20T01:53:37;13.20;;;9.33;;
1563;SDS011;775;51.958;7.976;2022-08-20T01:56:06;11.07;;;7.73;;
1563;SDS011;775;51.958;7.976;2022-08-20T01:58:35;12.63;;;8.57;;
1563;SDS011;775;51.958;7.976;2022-08-20T02:01:05;12.90;;;8.50;;
1563;SDS011;775;51.958;7.976;2022-08-20T02:03:32;11.50;;;7.77;;
1563;SDS011;775;51.958;7.976;2022-08-20T02:05:59;13.90;;;8.30;;
1563;SDS011;775;51.958;7.976;2022-08-20T02:08:27;14.20;;;8.70;;
1563;SDS011;775;51.958;7.976;2022-08-20T02:10:55;11.43;;;7.60;;
1563;SDS011;775;51.958;7.976;2022-08-20T02:13:22;12.30;;;7.67;;
1563;SDS011;775;51.958;7.976;2022-08-20T02:15:49;12.83;;;8.47;;
1563;SDS011;775;51.958;7.976;2022-08-20T02:18:18;12.43;;;7.30;;
1563;SDS011;775;51.958;7.976;2022-08-20T02:20:45;12.00;;;8.07;;
1563;SDS011;775;51.958;7.976;2022-08-20T02:23:13;12.20;;;7.63;;
1563;SDS011;775;51.958;7.976;2022-08-20T02:25:41;13.40;;;8.70;;
1563;SDS011;775;51.958;7.976;2022-08-20T02:28:10;14.40;;;8.57;;
1563;SDS011;775;51.958;7.976;2022-08-20T02:30:39;12.33;;;8.10;;
1563;SDS011;775;51.958;7.976;2022-08-20T02:33:07;14.03;;;9.20;;
1563;SDS011;775;51.958;7.976;2022-08-20T02:35:37;12.20;;;8.50;;
1563;SDS011;775;51.958;7.976;2022-08-20T02:38:04;11.30;;;8.37;;
1563;SDS011;775;51.958;7.976;2022-08-20T02:40:32;14.10;;;9.00;;
1563;SDS011;775;51.958;7.976;2022-08-20T02:43:00;13.30;;;9.10;;
1563;SDS011;775;51.958;7.976;2022-08-20T02:45:28;16.20;;;9.30;;
1563;SDS011;775;51.958;7.976;2022-08-20T02:47:55;15.80;;;8.10;;
1563;SDS011;775;51.958;7.976;2022-08-20T02:50:23;13.60;;;8.97;;
1563;SDS011;775;51.958;7.976;2022-08-20T02:52:52;14.80;;;9.27;;
1563;SDS011;775;51.958;7.976;2022-08-20T02:55:21;14.07;;;8.77;;
1563;SDS011;775;51.958;7.976;2022-08-20T02:57:48;11.30;;;7.43;;
1563;SDS011;775;51.958;7.976;2022-08-20T03:00:16;11.83;;;8.33;;
1563;SDS011;775;51.958;7.976;2022-08-20T03:02:44;14.90;;;11.07;;
1563;SDS011;775;51.958;7.976;2022-08-20T03:05:12;13.17;;;10.00;;
1563;SDS011;775;51.958;7.976;2022-08-20T03:07:40;10.60;;;6.90;;
1563;SDS011;775;51.958;7.976;2022-08-20T03:10:09;11.73;;;8.20;;
1563;SDS011;775;51.958;7.976;2022-08-20T03:12:38;12.83;;;8.60;;
1563;SDS011;775;51.958;7.976;2022-08-20T03:15:07;13.80;;;9.20;;
1563;SDS011;775;51.958;7.976;2022-08-20T03:17:34;12.83;;;8.90;;
1563;SDS011;775;51.958;7.976;2022-08-20T03:20:03;14.67;;;8.53;;
1563;SDS011;775;51.958;7.976;2022-08-20T03:22:30;14.57;;;8.90;;
1563;SDS011;775;51.958;7.976;2022-08-20T03:24:57;15.23;;;9.70;;
1563;SDS011;775;51.958;7.976;2022-08-20T03:27:26;13.43;;;8.43;;
1563;SDS011;775;51.958;7.976;2022-08-20T03:29:53;12.87;;;7.80;;
1563;SDS011;775;51.958;7.976;2022-08-20T03:32:20;11.77;;;7.20;;
1563;SDS011;775;51.958;7.976;2022-08-20T03:34:48;12.40;;;8.03;;
1563;SDS011;775;51.958;7.976;2022-08-20T03:37:15;14.77;;;8.10;;
1563;SDS011;775;51.958;7.976;2022-08-20T03:39:42;14.10;;;9.20;;
1563;SDS011;775;51.958;7.976;2022-08-20T03:42:10;13.07;;;9.17;;
1563;SDS011;775;51.958;7.976;2022-08-20T03:44:38;12.20;;;8.10;;
1563;SDS011;775;51.958;7.976;2022-08-20T03:47:05;13.27;;;8.60;;
1563;SDS011;775;51.958;7.976;2022-08-20T03:49:33;14.63;;;9.30;;
1563;SDS011;775;51.958;7.976;2022-08-20T03:52:00;12.40;;;7.50;;
1563;SDS011;775;51.958;7.976;2022-08-20T03:54:28;13.30;;;8.83;;
1563;SDS011;775;51.958;7.976;2022-08-20T03:56:55;14.63;;;9.33;;
1563;SDS011;775;51.958;7.976;2022-08-20T03:59:22;12.87;;;9.33;;
1563;SDS011;775;51.958;7.976;2022-08-20T04:01:51;14.33;;;8.93;;
1563;SDS011;775;51.958;7.976;2022-08-20T04:04:18;10.73;;;7.33;;
1563;SDS011;775;51.958;7.976;2022-08-20T04:06:46;14.67;;;8.60;;
1563;SDS011;775;51.958;7.976;2022-08-20T04:09:13;15.30;;;8.03;;
1563;SDS011;775;51.958;7.976;2022-08-20T04:11:40;10.70;;;7.80;;
1563;SDS011;775;51.958;7.976;2022-08-20T04:14:08;11.40;;;8.43;;
1563;SDS011;775;51.958;7.976;2022-08-20T04:16:35;12.10;;;8.17;;
1563;SDS011;775;51.958;7.976;2022-08-20T04:19:07;11.30;;;7.67;;
1563;SDS011;775;51.958;7.976;2022-08-20T04:21:34;10.57;;;7.30;;
1563;SDS011;775;51.958;7.976;2022-08-20T04:24:02;12.53;;;9.23;;
1563;SDS011;775;51.958;7.976;2022-08-20T04:26:30;11.00;;;7.93;;
1563;SDS011;775;51.958;7.976;2022-08-20T04:28:57;11.87;;;8.37;;
1563;SDS011;775;51.958;7.976;2022-08-20T04:31:25;11.60;;;7.80;;
1563;SDS011;775;51.958;7.976;2022-08-20T04:33:56;11.47;;;7.93;;
1563;SDS011;775;51.958;7.976;2022-08-20T04:36:25;10.87;;;7.80;;
1563;SDS011;775;51.958;7.976;2022-08-20T04:38:52;10.20;;;7.27;;
1563;SDS011;775;51.958;7.976;2022-08-20T04:41:20;11.70;;;7.53;;
1563;SDS011;775;51.958;7.976;2022-08-20T04:43:47;10.70;;;6.17;;
1563;SDS011;775;51.958;7.976;2022-08-20T04:46:14;11.33;;;6.87;;
1563;SDS011;775;51.958;7.976;2022-08-20T04:48:41;9.83;;;6.87;;
1563;SDS011;775;51.958;7.976;2022-08-20T04:51:09;10.97;;;7.00;;
1563;SDS011;775;51.958;7.976;2022-08-20T04:53:40;12.20;;;7.40;;
1563;SDS011;775;51.958;7.976;2022-08-20T04:56:08;10.07;;;7.30;;
1563;SDS011;775;51.958;7.976;2022-08-20T04:58:38;11.70;;;8.10;;
1563;SDS011;775;51.958;7.976;2022-08-20T05:01:06;10.37;;;7.60;;
1563;SDS011;775;51.958;7.976;2022-08-20T05:03:34;11.10;;;6.97;;
1563;SDS011;775;51.958;7.976;2022-08-20T05:06:02;11.90;;;7.57;;
1563;SDS011;775;51.958;7.976;2022-08-20T05:08:30;10.17;;;7.50;;
1563;SDS011;775;51.958;7.976;2022-08-20T05:10:58;10.70;;;7.27;;
1563;SDS011;775;51.958;7.976;2022-08-20T05:13:26;11.60;;;7.60;;
1563;SDS011;775;51.958;7.976;2022-08-20T05:15:53;11.53;;;8.53;;
1563;SDS011;775;51.958;7.976;2022-08-20T05:18:21;9.43;;;6.83;;
1563;SDS011;775;51.958;7.976;2022-08-20T05:20:49;11.10;;;8.10;;
1563;SDS011;775;51.958;7.976;2022-08-20T05:23:17;10.73;;;8.10;;
1563;SDS011;775;51.958;7.976;2022-08-20T05:25:45;12.07;;;7.60;;
1563;SDS011;775;51.958;7.976;2022-08-20T05:28:18;13.00;;;9.63;;
1563;SDS011;775;51.958;7.976;2022-08-20T05:30:45;14.43;;;8.47;;
1563;SDS011;775;51.958;7.976;2022-08-20T05:33:13;11.23;;;8.03;;
1563;SDS011;775;51.958;7.976;2022-08-20T05:35:42;14.93;;;8.00;;
1563;SDS011;775;51.958;7.976;2022-08-20T05:38:10;14.20;;;8.80;;
1563;SDS011;775;51.958;7.976;2022-08-20T05:40:38;13.10;;;8.63;;
1563;SDS011;775;51.958;7.976;2022-08-20T05:43:05;13.80;;;9.23;;
1563;SDS011;775;51.958;7.976;2022-08-20T05:45:34;13.80;;;9.17;;
1563;SDS011;775;51.958;7.976;2022-08-20T05:48:03;14.30;;;9.60;;
1563;SDS011;775;51.958;7.976;2022-08-20T05:50:30;14.27;;;9.97;;
1563;SDS011;775;51.958;7.976;2022-08-20T05:52:58;11.97;;;7.90;;
1563;SDS011;775;51.958;7.976;2022-08-20T05:55:25;12.90;;;9.00;;
1563;SDS011;775;51.958;7.976;2022-08-20T05:57:55;11.87;;;8.37;;
1563;SDS011;775;51.958;7.976;2022-08-20T06:00:22;12.30;;;8.67;;
1563;SDS011;775;51.958;7.976;2022-08-20T06:02:50;11.33;;;8.03;;
1563;SDS011;775;51.958;7.976;2022-08-20T06:05:35;14.33;;;10.00;;
1563;SDS011;775;51.958;7.976;2022-08-20T06:08:03;12.47;;;8.90;;
1563;SDS011;775;51.958;7.976;2022-08-20T06:10:30;12.40;;;8.70;;
1563;SDS011;775;51.958;7.976;2022-08-20T06:12:58;13.37;;;8.10;;
1563;SDS011;775;51.958;7.976;2022-08-20T06:15:26;12.33;;;8.10;;
1563;SDS011;775;51.958;7.976;2022-08-20T06:17:55;12.13;;;8.50;;
1563;SDS011;775;51.958;7.976;2022-08-20T06:20:22;12.70;;;8.70;;
1563;SDS011;775;51.958;7.976;2022-08-20T06:22:50;12.30;;;8.60;;
1563;SDS011;775;51.958;7.976;2022-08-20T06:25:17;10.90;;;7.70;;
1563;SDS011;775;51.958;7.976;2022-08-20T06:27:44;11.77;;;8.40;;
1563;SDS011;775;51.958;7.976;2022-08-20T06:30:13;11.63;;;7.80;;
1563;SDS011;775;51.958;7.976;2022-08-20T06:32:41;11.20;;;6.60;;
1563;SDS011;775;51.958;7.976;2022-08-20T06:35:09;11.27;;;7.30;;
1563;SDS011;775;51.958;7.976;2022-08-20T06:37:38;10.87;;;7.17;;
1563;SDS011;775;51.958;7.976;2022-08-20T06:40:08;11.80;;;7.90;;
1563;SDS011;775;51.958;7.976;2022-08-20T06:42:35;11.90;;;8.33;;
1563;SDS011;775;51.958;7.976;2022-08-20T06:45:04;11.37;;;7.57;;
1563;SDS011;775;51.958;7.976;2022-08-20T06:47:31;10.73;;;7.77;;
1563;SDS011;775;51.958;7.976;2022-08-20T06:49:59;9.53;;;6.83;;
1563;SDS011;775;51.958;7.976;2022-08-20T06:52:27;11.43;;;8.13;;
1563;SDS011;775;51.958;7.976;2022-08-20T06:54:54;12.20;;;8.53;;
1563;SDS011;775;51.958;7.976;2022-08-20T06:57:22;11.77;;;8.60;;
1563;SDS011;775;51.958;7.976;2022-08-20T06:59:49;10.93;;;8.13;;
1563;SDS011;775;51.958;7.976;2022-08-20T07:02:16;14.13;;;9.60;;
1563;SDS011;775;51.958;7.976;2022-08-20T07:04:44;12.90;;;8.90;;
1563;SDS011;775;51.958;7.976;2022-08-20T07:07:14;15.53;;;9.97;;
1563;SDS011;775;51.958;7.976;2022-08-20T07:09:43;13.23;;;8.60;;
1563;SDS011;775;51.958;7.976;2022-08-20T07:12:10;12.93;;;9.50;;
1563;SDS011;775;51.958;7.976;2022-08-20T07:14:38;14.10;;;9.70;;
1563;SDS011;775;51.958;7.976;2022-08-20T07:17:05;15.97;;;11.03;;
1563;SDS011;775;51.958;7.976;2022-08-20T07:19:32;12.87;;;9.60;;
1563;SDS011;775;51.958;7.976;2022-08-20T07:21:59;15.33;;;11.20;;
1563;SDS011;775;51.958;7.976;2022-08-20T07:24:26;15.18;;;10.95;;
1563;SDS011;775;51.958;7.976;2022-08-20T07:26:55;14.90;;;11.80;;
1563;SDS011;775;51.958;7.976;2022-08-20T07:29:22;16.20;;;11.70;;
1563;SDS011;775;51.958;7.976;2022-08-20T07:32:09;15.13;;;11.40;;
1563;SDS011;775;51.958;7.976;2022-08-20T07:34:54;13.17;;;9.87;;
1563;SDS011;775;51.958;7.976;2022-08-20T07:37:21;13.90;;;11.53;;
1563;SDS011;775;51.958;7.976;2022-08-20T07:39:49;13.77;;;9.60;;
1563;SDS011;775;51.958;7.976;2022-08-20T07:42:17;13.37;;;9.63;;
1563;SDS011;775;51.958;7.976;2022-08-20T07:44:45;17.23;;;10.00;;
1563;SDS011;775;51.958;7.976;2022-08-20T07:47:12;14.43;;;10.70;;
1563;SDS011;775;51.958;7.976;2022-08-20T07:49:43;17.40;;;11.40;;
1563;SDS011;775;51.958;7.976;2022-08-20T07:52:10;16.00;;;11.83;;
1563;SDS011;775;51.958;7.976;2022-08-20T07:54:39;16.13;;;10.60;;
1563;SDS011;775;51.958;7.976;2022-08-20T07:57:07;13.20;;;9.63;;
1563;SDS011;775;51.958;7.976;2022-08-20T07:59:36;14.07;;;9.50;;
1563;SDS011;775;51.958;7.976;2022-08-20T08:02:04;12.73;;;9.20;;
1563;SDS011;775;51.958;7.976;2022-08-20T08:04:31;14.60;;;10.27;;
1563;SDS011;775;51.958;7.976;2022-08-20T08:07:00;13.17;;;9.37;;
1563;SDS011;775;51.958;7.976;2022-08-20T08:09:27;13.20;;;9.40;;
1563;SDS011;775;51.958;7.976;2022-08-20T08:11:55;14.37;;;9.97;;
1563;SDS011;775;51.958;7.976;2022-08-20T08:14:24;14.40;;;11.70;;
1563;SDS011;775;51.958;7.976;2022-08-20T08:16:56;15.00;;;10.57;;
1563;SDS011;775;51.958;7.976;2022-08-20T08:19:23;16.30;;;12.43;;
1563;SDS011;775;51.958;7.976;2022-08-20T08:21:51;15.57;;;10.83;;
1563;SDS011;775;51.958;7.976;2022-08-20T08:24:18;16.43;;;11.83;;
1563;SDS011;775;51.958;7.976;2022-08-20T08:26:45;15.27;;;11.30;;
1563;SDS011;775;51.958;7.976;2022-08-20T08:29:14;13.83;;;11.47;;
1563;SDS011;775;51.958;7.976;2022-08-20T08:31:41;14.70;;;11.10;;
1563;SDS011;775;51.958;7.976;2022-08-20T08:34:09;14.73;;;10.00;;
1563;SDS011;775;51.958;7.976;2022-08-20T08:36:37;16.20;;;11.30;;
1563;SDS011;775;51.958;7.976;2022-08-20T08:39:04;14.30;;;10.33;;
1563;SDS011;775;51.958;7.976;2022-08-20T08:41:32;10.80;;;8.67;;
1563;SDS011;775;51.958;7.976;2022-08-20T08:44:03;12.30;;;7.70;;
1563;SDS011;775;51.958;7.976;2022-08-20T08:46:31;12.82;;;8.52;;
1563;SDS011;775;51.958;7.976;2022-08-20T08:49:00;13.93;;;10.17;;
1563;SDS011;775;51.958;7.976;2022-08-20T08:51:29;15.30;;;10.20;;
1563;SDS011;775;51.958;7.976;2022-08-20T08:53:56;12.60;;;9.23;;
1563;SDS011;775;51.958;7.976;2022-08-20T08:56:25;16.10;;;9.37;;
1563;SDS011;775;51.958;7.976;2022-08-20T08:59:02;14.53;;;8.90;;
1563;SDS011;775;51.958;7.976;2022-08-20T09:01:31;11.57;;;8.57;;
1563;SDS011;775;51.958;7.976;2022-08-20T09:04:00;13.23;;;9.87;;
1563;SDS011;775;51.958;7.976;2022-08-20T09:06:30;11.10;;;8.37;;
1563;SDS011;775;51.958;7.976;2022-08-20T09:08:58;13.53;;;8.97;;
1563;SDS011;775;51.958;7.976;2022-08-20T09:11:26;13.40;;;7.73;;
1563;SDS011;775;51.958;7.976;2022-08-20T09:13:53;10.83;;;7.27;;
1563;SDS011;775;51.958;7.976;2022-08-20T09:16:21;8.83;;;6.20;;
1563;SDS011;775;51.958;7.976;2022-08-20T09:18:48;10.37;;;6.53;;
1563;SDS011;775;51.958;7.976;2022-08-20T09:21:16;11.00;;;7.20;;
1563;SDS011;775;51.958;7.976;2022-08-20T09:23:45;11.10;;;7.50;;
1563;SDS011;775;51.958;7.976;2022-08-20T09:26:12;9.90;;;6.53;;
1563;SDS011;775;51.958;7.976;2022-08-20T09:28:39;9.73;;;6.77;;
1563;SDS011;775;51.958;7.976;2022-08-20T09:31:06;11.80;;;7.10;;
1563;SDS011;775;51.958;7.976;2022-08-20T09:33:33;8.67;;;5.77;;
1563;SDS011;775;51.958;7.976;2022-08-20T09:36:01;9.93;;;5.87;;
1563;SDS011;775;51.958;7.976;2022-08-20T09:38:28;8.77;;;6.30;;
1563;SDS011;775;51.958;7.976;2022-08-20T09:40:56;8.23;;;5.93;;
1563;SDS011;775;51.958;7.976;2022-08-20T09:43:23;11.20;;;6.10;;
1563;SDS011;775;51.958;7.976;2022-08-20T09:45:51;9.30;;;5.60;;
1563;SDS011;775;51.958;7.976;2022-08-20T09:48:18;8.07;;;5.47;;
1563;SDS011;775;51.958;7.976;2022-08-20T09:50:46;8.90;;;6.63;;
1563;SDS011;775;51.958;7.976;2022-08-20T09:53:13;8.40;;;5.43;;
1563;SDS011;775;51.958;7.976;2022-08-20T09:55:42;10.47;;;7.80;;
1563;SDS011;775;51.958;7.976;2022-08-20T09:58:15;10.07;;;6.93;;
1563;SDS011;775;51.958;7.976;2022-08-20T10:00:45;9.83;;;5.53;;
1563;SDS011;775;51.958;7.976;2022-08-20T10:03:12;10.53;;;6.30;;
1563;SDS011;775;51.958;7.976;2022-08-20T10:05:39;10.67;;;5.80;;
1563;SDS011;775;51.958;7.976;2022-08-20T10:08:07;10.37;;;5.60;;
1563;SDS011;775;51.958;7.976;2022-08-20T10:10:35;8.63;;;6.53;;
1563;SDS011;775;51.958;7.976;2022-08-20T10:13:02;8.73;;;6.33;;
1563;SDS011;775;51.958;7.976;2022-08-20T10:15:31;9.90;;;5.97;;
1563;SDS011;775;51.958;7.976;2022-08-20T10:18:01;10.10;;;6.13;;
1563;SDS011;775;51.958;7.976;2022-08-20T10:20:29;9.60;;;6.40;;
1563;SDS011;775;51.958;7.976;2022-08-20T10:22:56;9.53;;;6.30;;
1563;SDS011;775;51.958;7.976;2022-08-20T10:25:23;7.40;;;4.90;;
1563;SDS011;775;51.958;7.976;2022-08-20T10:27:52;9.53;;;6.50;;
1563;SDS011;775;51.958;7.976;2022-08-20T10:30:20;8.60;;;5.60;;
1563;SDS011;775;51.958;7.976;2022-08-20T10:32:48;9.30;;;5.80;;
1563;SDS011;775;51.958;7.976;2022-08-20T10:35:15;9.63;;;6.72;;
1563;SDS011;775;51.958;7.976;2022-08-20T10:37:43;8.57;;;6.23;;
1563;SDS011;775;51.958;7.976;2022-08-20T10:40:10;8.73;;;6.30;;
1563;SDS011;775;51.958;7.976;2022-08-20T10:42:39;9.60;;;5.77;;
1563;SDS011;775;51.958;7.976;2022-08-20T10:45:07;8.47;;;4.60;;
1563;SDS011;775;51.958;7.976;2022-08-20T10:47:35;7.97;;;5.40;;
1563;SDS011;775;51.958;7.976;2022-08-20T10:50:05;7.00;;;4.50;;
1563;SDS011;775;51.958;7.976;2022-08-20T10:52:32;8.20;;;5.57;;
1563;SDS011;775;51.958;7.976;2022-08-20T10:55:00;10.43;;;5.37;;
1563;SDS011;775;51.958;7.976;2022-08-20T10:57:29;9.20;;;5.07;;
1563;SDS011;775;51.958;7.976;2022-08-20T10:59:58;7.17;;;4.20;;
1563;SDS011;775;51.958;7.976;2022-08-20T11:02:25;7.77;;;4.77;;
1563;SDS011;775;51.958;7.976;2022-08-20T11:04:53;7.20;;;4.70;;
1563;SDS011;775;51.958;7.976;2022-08-20T11:07:23;10.63;;;4.83;;
1563;SDS011;775;51.958;7.976;2022-08-20T11:09:51;6.37;;;4.23;;
1563;SDS011;775;51.958;7.976;2022-08-20T11:12:19;7.23;;;3.50;;
1563;SDS011;775;51.958;7.976;2022-08-20T11:14:46;7.20;;;4.30;;
1563;SDS011;775;51.958;7.976;2022-08-20T11:17:19;7.40;;;4.27;;
1563;SDS011;775;51.958;7.976;2022-08-20T11:19:47;6.63;;;3.67;;
1563;SDS011;775;51.958;7.976;2022-08-20T11:22:14;7.27;;;3.60;;
1563;SDS011;775;51.958;7.976;2022-08-20T11:24:43;7.23;;;4.00;;
1563;SDS011;775;51.958;7.976;2022-08-20T11:27:10;7.93;;;3.80;;
1563;SDS011;775;51.958;7.976;2022-08-20T11:29:41;6.10;;;3.20;;
1563;SDS011;775;51.958;7.976;2022-08-20T11:32:08;6.37;;;3.80;;
1563;SDS011;775;51.958;7.976;2022-08-20T11:34:35;6.67;;;4.17;;
1563;SDS011;775;51.958;7.976;2022-08-20T11:37:02;6.33;;;4.60;;
1563;SDS011;775;51.958;7.976;2022-08-20T11:39:30;5.87;;;3.23;;
1563;SDS011;775;51.958;7.976;2022-08-20T11:41:58;6.87;;;3.60;;
1563;SDS011;775;51.958;7.976;2022-08-20T11:44:26;7.27;;;3.10;;
1563;SDS011;775;51.958;7.976;2022-08-20T11:46:53;5.50;;;2.97;;
1563;SDS011;775;51.958;7.976;2022-08-20T11:49:24;9.10;;;3.40;;
1563;SDS011;775;51.958;7.976;2022-08-20T11:51:51;7.57;;;3.10;;
1563;SDS011;775;51.958;7.976;2022-08-20T11:54:18;6.73;;;3.37;;
1563;SDS011;775;51.958;7.976;2022-08-20T11:56:45;8.97;;;3.80;;
1563;SDS011;775;51.958;7.976;2022-08-20T11:59:15;6.37;;;3.10;;
1563;SDS011;775;51.958;7.976;2022-08-20T12:01:42;8.10;;;3.47;;
1563;SDS011;775;51.958;7.976;2022-08-20T12:04:09;6.13;;;3.40;;
1563;SDS011;775;51.958;7.976;2022-08-20T12:06:36;7.63;;;3.97;;
1563;SDS011;775;51.958;7.976;2022-08-20T12:09:04;8.23;;;3.57;;
1563;SDS011;775;51.958;7.976;2022-08-20T12:11:31;6.47;;;3.13;;
1563;SDS011;775;51.958;7.976;2022-08-20T12:13:58;5.77;;;3.43;;
1563;SDS011;775;51.958;7.976;2022-08-20T12:16:26;9.80;;;4.10;;
1563;SDS011;775;51.958;7.976;2022-08-20T12:18:54;6.80;;;3.30;;
1563;SDS011;775;51.958;7.976;2022-08-20T12:21:21;8.43;;;3.70;;
1563;SDS011;775;51.958;7.976;2022-08-20T12:23:48;5.70;;;3.03;;
1563;SDS011;775;51.958;7.976;2022-08-20T12:26:15;6.00;;;2.80;;
1563;SDS011;775;51.958;7.976;2022-08-20T12:28:46;5.90;;;3.00;;
1563;SDS011;775;51.958;7.976;2022-08-20T12:31:13;5.80;;;2.60;;
1563;SDS011;775;51.958;7.976;2022-08-20T12:33:41;6.93;;;2.93;;
1563;SDS011;775;51.958;7.976;2022-08-20T12:36:08;6.03;;;3.10;;
1563;SDS011;775;51.958;7.976;2022-08-20T12:38:36;5.70;;;2.70;;
1563;SDS011;775;51.958;7.976;2022-08-20T12:41:03;5.57;;;2.70;;
1563;SDS011;775;51.958;7.976;2022-08-20T12:43:30;5.07;;;2.97;;
1563;SDS011;775;51.958;7.976;2022-08-20T12:45:57;6.60;;;3.10;;
1563;SDS011;775;51.958;7.976;2022-08-20T15:36:14;7.83;;;3.57;;
1563;SDS011;775;51.958;7.976;2022-08-20T15:38:41;8.10;;;2.30;;
1563;SDS011;775;51.958;7.976;2022-08-20T15:41:08;7.27;;;2.60;;
1563;SDS011;775;51.958;7.976;2022-08-20T15:43:35;6.60;;;2.40;;
1563;SDS011;775;51.958;7.976;2022-08-20T15:46:03;5.67;;;2.03;;
1563;SDS011;775;51.958;7.976;2022-08-20T15:48:31;5.27;;;2.20;;
1563;SDS011;775;51.958;7.976;2022-08-20T15:51:02;8.07;;;2.80;;
1563;SDS011;775;51.958;7.976;2022-08-20T15:53:38;5.13;;;1.83;;
1563;SDS011;775;51.958;7.976;2022-08-20T15:56:10;6.00;;;2.20;;
1563;SDS011;775;51.958;7.976;2022-08-20T15:58:42;7.00;;;2.30;;
1563;SDS011;775;51.958;7.976;2022-08-20T16:01:14;5.17;;;2.10;;
1563;SDS011;775;51.958;7.976;2022-08-20T16:04:01;5.17;;;2.63;;
1563;SDS011;775;51.958;7.976;2022-08-20T16:06:32;6.30;;;2.10;;
1563;SDS011;775;51.958;7.976;2022-08-20T16:09:06;7.43;;;2.00;;
1563;SDS011;775;51.958;7.976;2022-08-20T16:11:39;6.43;;;2.30;;
1563;SDS011;775;51.958;7.976;2022-08-20T16:14:11;5.90;;;2.07;;
1563;SDS011;775;51.958;7.976;2022-08-20T16:16:41;6.20;;;2.30;;
1563;SDS011;775;51.958;7.976;2022-08-20T16:19:09;5.47;;;2.60;;
1563;SDS011;775;51.958;7.976;2022-08-20T16:21:39;7.90;;;2.00;;
1563;SDS011;775;51.958;7.976;2022-08-20T16:24:08;6.30;;;2.00;;
1563;SDS011;775;51.958;7.976;2022-08-20T16:26:55;6.33;;;2.03;;
1563;SDS011;775;51.958;7.976;2022-08-20T16:29:28;8.37;;;2.47;;
1563;SDS011;775;51.958;7.976;2022-08-20T16:32:00;6.57;;;2.70;;
1563;SDS011;775;51.958;7.976;2022-08-20T16:34:30;6.87;;;2.10;;
1563;SDS011;775;51.958;7.976;2022-08-20T16:36:58;9.40;;;2.27;;
1563;SDS011;775;51.958;7.976;2022-08-20T16:39:32;6.50;;;2.50;;
1563;SDS011;775;51.958;7.976;2022-08-20T16:42:01;5.70;;;1.83;;
1563;SDS011;775;51.958;7.976;2022-08-20T16:44:31;13.10;;;2.67;;
1563;SDS011;775;51.958;7.976;2022-08-20T16:47:00;7.40;;;2.63;;
1563;SDS011;775;51.958;7.976;2022-08-20T16:49:29;5.77;;;1.97;;
1563;SDS011;775;51.958;7.976;2022-08-20T16:51:56;7.63;;;2.17;;
1563;SDS011;775;51.958;7.976;2022-08-20T16:54:25;7.83;;;2.10;;
1563;SDS011;775;51.958;7.976;2022-08-20T16:56:57;10.57;;;2.40;;
1563;SDS011;775;51.958;7.976;2022-08-20T16:59:24;8.03;;;2.40;;
1563;SDS011;775;51.958;7.976;2022-08-20T17:01:58;7.30;;;2.00;;
1563;SDS011;775;51.958;7.976;2022-08-20T17:04:26;8.03;;;2.20;;
1563;SDS011;775;51.958;7.976;2022-08-20T17:06:53;5.97;;;1.93;;
1563;SDS011;775;51.958;7.976;2022-08-20T17:09:31;7.40;;;1.90;;
1563;SDS011;775;51.958;7.976;2022-08-20T17:12:13;12.43;;;2.83;;
1563;SDS011;775;51.958;7.976;2022-08-20T17:14:42;7.20;;;2.10;;
1563;SDS011;775;51.958;7.976;2022-08-20T17:17:16;5.30;;;1.83;;
1563;SDS011;775;51.958;7.976;2022-08-20T17:19:49;5.40;;;2.20;;
1563;SDS011;775;51.958;7.976;2022-08-20T17:22:17;9.00;;;2.17;;
1563;SDS011;775;51.958;7.976;2022-08-20T17:24:44;8.10;;;2.50;;
1563;SDS011;775;51.958;7.976;2022-08-20T17:27:14;5.30;;;2.00;;
1563;SDS011;775;51.958;7.976;2022-08-20T17:29:48;7.17;;;2.27;;
1563;SDS011;775;51.958;7.976;2022-08-20T17:32:17;7.80;;;1.83;;
1563;SDS011;775;51.958;7.976;2022-08-20T17:34:47;6.30;;;1.87;;
1563;SDS011;775;51.958;7.976;2022-08-20T17:37:18;5.93;;;2.70;;
1563;SDS011;775;51.958;7.976;2022-08-20T17:39:47;9.83;;;2.37;;
1563;SDS011;775;51.958;7.976;2022-08-20T17:42:19;8.23;;;1.87;;
1563;SDS011;775;51.958;7.976;2022-08-20T17:44:47;7.20;;;2.20;;
1563;SDS011;775;51.958;7.976;2022-08-20T17:47:16;5.67;;;1.90;;
1563;SDS011;775;51.958;7.976;2022-08-20T17:49:44;9.40;;;2.87;;
1563;SDS011;775;51.958;7.976;2022-08-20T17:52:15;6.83;;;2.30;;
1563;SDS011;775;51.958;7.976;2022-08-20T17:54:43;7.60;;;3.73;;
1563;SDS011;775;51.958;7.976;2022-08-20T17:57:12;9.27;;;2.43;;
1563;SDS011;775;51.958;7.976;2022-08-20T17:59:41;6.20;;;2.73;;
1563;SDS011;775;51.958;7.976;2022-08-20T18:02:09;9.37;;;3.37;;
1563;SDS011;775;51.958;7.976;2022-08-20T18:04:37;6.33;;;2.40;;
1563;SDS011;775;51.958;7.976;2022-08-20T18:07:07;6.60;;;2.00;;
1563;SDS011;775;51.958;7.976;2022-08-20T18:09:35;7.83;;;2.00;;
1563;SDS011;775;51.958;7.976;2022-08-20T18:12:06;5.57;;;2.33;;
1563;SDS011;775;51.958;7.976;2022-08-20T18:14:43;6.70;;;2.00;;
1563;SDS011;775;51.958;7.976;2022-08-20T18:17:15;5.20;;;2.37;;
1563;SDS011;775;51.958;7.976;2022-08-20T18:19:54;9.43;;;2.70;;